sensor_id;sensor_type;location;lat;lon;timestamp;pressure;altitude;pressure_sealevel;temperature;humidity
54262;BME280;40174;52.364;6.452;2023-01-29T00:00:52;102670.25;;;1.35;100.00
54262;BME280;40174;52.364;6.452;2023-01-29T00:03:19;102673.72;;;1.34;100.00
54262;BME280;40174;52.364;6.452;2023-01-29T00:05:45;102679.78;;;1.34;100.00
54262;BME280;40174;52.364;6.452;2023-01-29T00:08:14;102685.84;;;1.36;100.00
54262;BME280;40174;52.364;6.452;2023-01-29T00:10:41;102678.88;;;1.38;100.00
54262;BME280;40174;52.364;6.452;2023-01-29T00:13:07;102678.03;;;1.38;100.00
54262;BME280;40174;52.364;6.452;2023-01-29T00:15:34;102662.38;;;1.39;100.00
54262;BME280;40174;52.364;6.452;2023-01-29T00:18:00;102671.91;;;1.39;100.00
54262;BME280;40174;52.364;6.452;2023-01-29T00:20:27;102670.16;;;1.41;100.00
54262;BME280;40174;52.364;6.452;2023-01-29T00:22:54;102662.41;;;1.38;100.00
54262;BME280;40174;52.364;6.452;2023-01-29T00:25:22;102646.75;;;1.38;100.00
54262;BME280;40174;52.364;6.452;2023-01-29T00:27:48;102647.66;;;1.37;100.00
54262;BME280;40174;52.364;6.452;2023-01-29T00:30:15;102648.47;;;1.40;100.00
54262;BME280;40174;52.364;6.452;2023-01-29T00:32:43;102637.19;;;1.38;100.00
54262;BME280;40174;52.364;6.452;2023-01-29T00:35:10;102625.00;;;1.39;100.00
54262;BME280;40174;52.364;6.452;2023-01-29T00:37:37;102631.13;;;1.38;100.00
54262;BME280;40174;52.364;6.452;2023-01-29T00:40:05;102627.66;;;1.37;100.00
54262;BME280;40174;52.364;6.452;2023-01-29T00:42:33;102624.19;;;1.37;100.00
54262;BME280;40174;52.364;6.452;2023-01-29T00:45:17;102625.06;;;1.37;100.00
54262;BME280;40174;52.364;6.452;2023-01-29T00:47:44;102625.97;;;1.35;100.00
54262;BME280;40174;52.364;6.452;2023-01-29T00:50:11;102634.63;;;1.35;100.00
54262;BME280;40174;52.364;6.452;2023-01-29T00:52:39;102625.97;;;1.35;100.00
54262;BME280;40174;52.364;6.452;2023-01-29T00:55:07;102625.06;;;1.34;100.00
54262;BME280;40174;52.364;6.452;2023-01-29T00:57:36;102625.97;;;1.35;100.00
54262;BME280;40174;52.364;6.452;2023-01-29T01:00:06;102625.97;;;1.35;100.00
54262;BME280;40174;52.364;6.452;2023-01-29T01:02:34;102627.69;;;1.34;100.00
54262;BME280;40174;52.364;6.452;2023-01-29T01:05:19;102629.44;;;1.34;100.00
54262;BME280;40174;52.364;6.452;2023-01-29T01:07:47;102629.41;;;1.37;100.00
54262;BME280;40174;52.364;6.452;2023-01-29T01:10:17;102632.88;;;1.36;100.00
54262;BME280;40174;52.364;6.452;2023-01-29T01:12:52;102629.41;;;1.37;100.00
54262;BME280;40174;52.364;6.452;2023-01-29T01:15:20;102629.44;;;1.35;100.00
54262;BME280;40174;52.364;6.452;2023-01-29T01:17:47;102621.59;;;1.35;100.00
54262;BME280;40174;52.364;6.452;2023-01-29T01:20:14;102617.25;;;1.34;100.00
54262;BME280;40174;52.364;6.452;2023-01-29T01:22:40;102624.22;;;1.34;100.00
54262;BME280;40174;52.364;6.452;2023-01-29T01:25:08;102625.97;;;1.35;100.00
54262;BME280;40174;52.364;6.452;2023-01-29T01:27:35;102634.63;;;1.35;100.00
54262;BME280;40174;52.364;6.452;2023-01-29T01:30:09;102628.53;;;1.36;100.00
54262;BME280;40174;52.364;6.452;2023-01-29T01:32:37;102623.38;;;1.33;100.00
54262;BME280;40174;52.364;6.452;2023-01-29T01:35:04;102621.63;;;1.32;100.00
54262;BME280;40174;52.364;6.452;2023-01-29T01:37:31;102628.56;;;1.35;100.00
54262;BME280;40174;52.364;6.452;2023-01-29T01:39:58;102632.03;;;1.37;100.00
54262;BME280;40174;52.364;6.452;2023-01-29T01:42:28;102627.66;;;1.37;100.00
54262;BME280;40174;52.364;6.452;2023-01-29T01:44:59;102633.78;;;1.35;100.00
54262;BME280;40174;52.364;6.452;2023-01-29T01:47:34;102644.19;;;1.35;100.00
54262;BME280;40174;52.364;6.452;2023-01-29T01:50:05;102648.53;;;1.36;100.00
54262;BME280;40174;52.364;6.452;2023-01-29T01:52:35;102647.63;;;1.38;100.00
54262;BME280;40174;52.364;6.452;2023-01-29T01:55:04;102652.88;;;1.37;100.00
54262;BME280;40174;52.364;6.452;2023-01-29T01:57:31;102655.47;;;1.37;100.00
54262;BME280;40174;52.364;6.452;2023-01-29T02:00:03;102645.06;;;1.35;100.00
54262;BME280;40174;52.364;6.452;2023-01-29T02:02:41;102645.91;;;1.37;100.00
54262;BME280;40174;52.364;6.452;2023-01-29T02:05:28;102646.75;;;1.38;100.00
54262;BME280;40174;52.364;6.452;2023-01-29T02:08:13;102651.06;;;1.39;100.00
54262;BME280;40174;52.364;6.452;2023-01-29T02:10:58;102650.22;;;1.40;100.00
54262;BME280;40174;52.364;6.452;2023-01-29T02:13:25;102638.88;;;1.41;100.00
54262;BME280;40174;52.364;6.452;2023-01-29T02:15:52;102638.94;;;1.39;100.00
54262;BME280;40174;52.364;6.452;2023-01-29T02:18:20;102638.94;;;1.39;100.00
54262;BME280;40174;52.364;6.452;2023-01-29T02:20:53;102653.66;;;1.40;100.00
54262;BME280;40174;52.364;6.452;2023-01-29T02:23:51;102654.53;;;1.41;100.00
54262;BME280;40174;52.364;6.452;2023-01-29T02:26:37;102655.41;;;1.41;100.00
54262;BME280;40174;52.364;6.452;2023-01-29T02:29:09;102652.81;;;1.41;100.00
54262;BME280;40174;52.364;6.452;2023-01-29T02:32:01;102658.88;;;1.42;100.00
54262;BME280;40174;52.364;6.452;2023-01-29T02:34:39;102655.41;;;1.41;100.00
54262;BME280;40174;52.364;6.452;2023-01-29T02:38:00;102663.19;;;1.43;100.00
54262;BME280;40174;52.364;6.452;2023-01-29T02:40:29;102674.47;;;1.43;100.00
54262;BME280;40174;52.364;6.452;2023-01-29T02:43:05;102677.91;;;1.47;100.00
54262;BME280;40174;52.364;6.452;2023-01-29T02:45:43;102673.59;;;1.46;100.00
54262;BME280;40174;52.364;6.452;2023-01-29T02:48:16;102665.78;;;1.43;100.00
54262;BME280;40174;52.364;6.452;2023-01-29T02:50:48;102659.69;;;1.45;100.00
54262;BME280;40174;52.364;6.452;2023-01-29T02:53:22;102664.03;;;1.47;100.00
54262;BME280;40174;52.364;6.452;2023-01-29T02:55:55;102651.91;;;1.41;100.00
54262;BME280;40174;52.364;6.452;2023-01-29T02:58:28;102655.38;;;1.43;100.00
54262;BME280;40174;52.364;6.452;2023-01-29T03:00:59;102652.75;;;1.43;100.00
54262;BME280;40174;52.364;6.452;2023-01-29T03:03:31;102658.81;;;1.43;100.00
54262;BME280;40174;52.364;6.452;2023-01-29T03:06:02;102650.16;;;1.43;100.00
54262;BME280;40174;52.364;6.452;2023-01-29T03:08:35;102643.19;;;1.47;100.00
54262;BME280;40174;52.364;6.452;2023-01-29T03:11:09;102645.78;;;1.47;100.00
54262;BME280;40174;52.364;6.452;2023-01-29T03:13:42;102636.22;;;1.47;100.00
54262;BME280;40174;52.364;6.452;2023-01-29T03:16:17;102624.06;;;1.46;100.00
54262;BME280;40174;52.364;6.452;2023-01-29T03:18:49;102615.38;;;1.45;100.00
54262;BME280;40174;52.364;6.452;2023-01-29T03:21:22;102611.00;;;1.48;100.00
54262;BME280;40174;52.364;6.452;2023-01-29T03:24:12;102603.22;;;1.46;100.00
54262;BME280;40174;52.364;6.452;2023-01-29T03:27:01;102602.34;;;1.45;100.00
54262;BME280;40174;52.364;6.452;2023-01-29T03:29:48;102597.13;;;1.45;100.00
54262;BME280;40174;52.364;6.452;2023-01-29T03:32:55;102599.72;;;1.49;100.00
54262;BME280;40174;52.364;6.452;2023-01-29T03:35:30;102591.97;;;1.44;100.00
54262;BME280;40174;52.364;6.452;2023-01-29T03:38:02;102586.75;;;1.42;100.00
54262;BME280;40174;52.364;6.452;2023-01-29T03:40:35;102588.47;;;1.43;100.00
54262;BME280;40174;52.364;6.452;2023-01-29T03:43:10;102582.38;;;1.46;100.00
54262;BME280;40174;52.364;6.452;2023-01-29T03:45:47;102571.13;;;1.44;100.00
54262;BME280;40174;52.364;6.452;2023-01-29T03:48:29;102569.38;;;1.43;100.00
54262;BME280;40174;52.364;6.452;2023-01-29T03:51:06;102563.31;;;1.41;100.00
54262;BME280;40174;52.364;6.452;2023-01-29T03:53:41;102566.81;;;1.41;100.00
54262;BME280;40174;52.364;6.452;2023-01-29T03:56:20;102558.94;;;1.43;100.00
54262;BME280;40174;52.364;6.452;2023-01-29T03:58:55;102547.59;;;1.47;100.00
54262;BME280;40174;52.364;6.452;2023-01-29T04:01:39;102545.09;;;1.41;100.00
54262;BME280;40174;52.364;6.452;2023-01-29T04:04:14;102539.91;;;1.39;100.00
54262;BME280;40174;52.364;6.452;2023-01-29T04:06:44;102537.31;;;1.39;100.00
54262;BME280;40174;52.364;6.452;2023-01-29T04:09:15;102545.13;;;1.39;100.00
54262;BME280;40174;52.364;6.452;2023-01-29T04:11:49;102539.03;;;1.40;100.00
54262;BME280;40174;52.364;6.452;2023-01-29T04:14:18;102533.81;;;1.40;100.00
54262;BME280;40174;52.364;6.452;2023-01-29T04:16:49;102536.34;;;1.43;100.00
54262;BME280;40174;52.364;6.452;2023-01-29T04:19:32;102546.81;;;1.42;100.00
54262;BME280;40174;52.364;6.452;2023-01-29T04:22:04;102537.25;;;1.42;100.00
54262;BME280;40174;52.364;6.452;2023-01-29T04:24:32;102535.53;;;1.41;100.00
54262;BME280;40174;52.364;6.452;2023-01-29T04:27:09;102539.88;;;1.41;100.00
54262;BME280;40174;52.364;6.452;2023-01-29T04:29:51;102545.09;;;1.41;100.00
54262;BME280;40174;52.364;6.452;2023-01-29T04:32:25;102543.38;;;1.41;100.00
54262;BME280;40174;52.364;6.452;2023-01-29T04:35:00;102536.41;;;1.40;100.00
54262;BME280;40174;52.364;6.452;2023-01-29T04:37:34;102536.41;;;1.40;100.00
54262;BME280;40174;52.364;6.452;2023-01-29T04:40:10;102531.22;;;1.39;100.00
54262;BME280;40174;52.364;6.452;2023-01-29T04:42:43;102526.00;;;1.39;100.00
54262;BME280;40174;52.364;6.452;2023-01-29T04:45:23;102525.16;;;1.38;100.00
54262;BME280;40174;52.364;6.452;2023-01-29T04:47:59;102521.69;;;1.38;100.00
54262;BME280;40174;52.364;6.452;2023-01-29T04:50:35;102523.41;;;1.39;100.00
54262;BME280;40174;52.364;6.452;2023-01-29T04:53:06;102524.25;;;1.41;100.00
54262;BME280;40174;52.364;6.452;2023-01-29T04:55:41;102523.41;;;1.39;100.00
54262;BME280;40174;52.364;6.452;2023-01-29T04:58:13;102531.22;;;1.39;100.00
54262;BME280;40174;52.364;6.452;2023-01-29T05:00:42;102526.88;;;1.39;100.00
54262;BME280;40174;52.364;6.452;2023-01-29T05:03:11;102521.69;;;1.38;100.00
54262;BME280;40174;52.364;6.452;2023-01-29T05:05:41;102523.44;;;1.36;100.00
54262;BME280;40174;52.364;6.452;2023-01-29T05:08:12;102530.41;;;1.37;100.00
54262;BME280;40174;52.364;6.452;2023-01-29T05:10:41;102525.19;;;1.37;100.00
54262;BME280;40174;52.364;6.452;2023-01-29T05:13:12;102529.50;;;1.36;100.00
54262;BME280;40174;52.364;6.452;2023-01-29T05:15:43;102534.78;;;1.33;100.00
54262;BME280;40174;52.364;6.452;2023-01-29T05:18:11;102529.56;;;1.35;100.00
54262;BME280;40174;52.364;6.452;2023-01-29T05:20:42;102543.47;;;1.34;100.00
54262;BME280;40174;52.364;6.452;2023-01-29T05:23:09;102542.59;;;1.35;100.00
54262;BME280;40174;52.364;6.452;2023-01-29T05:25:36;102547.75;;;1.38;100.00
54262;BME280;40174;52.364;6.452;2023-01-29T05:28:03;102534.78;;;1.35;100.00
54262;BME280;40174;52.364;6.452;2023-01-29T05:30:30;102543.47;;;1.32;100.00
54262;BME280;40174;52.364;6.452;2023-01-29T05:32:57;102551.28;;;1.34;100.00
54262;BME280;40174;52.364;6.452;2023-01-29T05:35:24;102551.25;;;1.35;100.00
54262;BME280;40174;52.364;6.452;2023-01-29T05:37:53;102556.47;;;1.34;100.00
54262;BME280;40174;52.364;6.452;2023-01-29T05:40:20;102549.50;;;1.36;100.00
54262;BME280;40174;52.364;6.452;2023-01-29T05:42:47;102540.84;;;1.34;100.00
54262;BME280;40174;52.364;6.452;2023-01-29T05:45:14;102533.03;;;1.35;100.00
54262;BME280;40174;52.364;6.452;2023-01-29T05:47:41;102531.31;;;1.33;100.00
54262;BME280;40174;52.364;6.452;2023-01-29T05:50:08;102526.97;;;1.35;100.00
54262;BME280;40174;52.364;6.452;2023-01-29T05:52:35;102506.19;;;1.29;100.00
54262;BME280;40174;52.364;6.452;2023-01-29T05:55:04;102509.66;;;1.31;100.00
54262;BME280;40174;52.364;6.452;2023-01-29T05:57:30;102518.38;;;1.28;100.00
54262;BME280;40174;52.364;6.452;2023-01-29T05:59:57;102514.88;;;1.29;100.00
54262;BME280;40174;52.364;6.452;2023-01-29T06:02:24;102514.00;;;1.29;100.00
54262;BME280;40174;52.364;6.452;2023-01-29T06:04:50;102510.50;;;1.30;100.00
54262;BME280;40174;52.364;6.452;2023-01-29T06:07:17;102489.72;;;1.27;100.00
54262;BME280;40174;52.364;6.452;2023-01-29T06:09:44;102492.31;;;1.27;100.00
54262;BME280;40174;52.364;6.452;2023-01-29T06:12:12;102498.41;;;1.25;100.00
54262;BME280;40174;52.364;6.452;2023-01-29T06:14:38;102500.16;;;1.25;100.00
54262;BME280;40174;52.364;6.452;2023-01-29T06:17:05;102509.72;;;1.26;100.00
54262;BME280;40174;52.364;6.452;2023-01-29T06:19:31;102512.31;;;1.24;100.00
54262;BME280;40174;52.364;6.452;2023-01-29T06:21:58;102508.81;;;1.27;100.00
54262;BME280;40174;52.364;6.452;2023-01-29T06:24:25;102495.81;;;1.25;100.00
54262;BME280;40174;52.364;6.452;2023-01-29T06:26:51;102488.88;;;1.24;100.00
54262;BME280;40174;52.364;6.452;2023-01-29T06:29:19;102476.78;;;1.22;100.00
54262;BME280;40174;52.364;6.452;2023-01-29T06:31:46;102496.72;;;1.23;100.00
54262;BME280;40174;52.364;6.452;2023-01-29T06:34:12;102495.84;;;1.22;100.00
54262;BME280;40174;52.364;6.452;2023-01-29T06:36:39;102492.41;;;1.22;100.00
54262;BME280;40174;52.364;6.452;2023-01-29T06:39:06;102486.28;;;1.24;100.00
54262;BME280;40174;52.364;6.452;2023-01-29T06:41:33;102488.03;;;1.22;100.00
54262;BME280;40174;52.364;6.452;2023-01-29T06:44:00;102474.22;;;1.19;100.00
54262;BME280;40174;52.364;6.452;2023-01-29T06:46:28;102475.91;;;1.21;100.00
54262;BME280;40174;52.364;6.452;2023-01-29T06:48:57;102462.06;;;1.16;100.00
54262;BME280;40174;52.364;6.452;2023-01-29T06:51:24;102475.94;;;1.20;100.00
54262;BME280;40174;52.364;6.452;2023-01-29T06:53:51;102474.22;;;1.19;100.00
54262;BME280;40174;52.364;6.452;2023-01-29T06:56:19;102470.72;;;1.20;100.00
54262;BME280;40174;52.364;6.452;2023-01-29T06:58:45;102467.25;;;1.19;100.00
54262;BME280;40174;52.364;6.452;2023-01-29T07:01:12;102474.16;;;1.22;100.00
54262;BME280;40174;52.364;6.452;2023-01-29T07:03:40;102467.25;;;1.19;100.00
54262;BME280;40174;52.364;6.452;2023-01-29T07:06:08;102481.97;;;1.22;100.00
54262;BME280;40174;52.364;6.452;2023-01-29T07:08:35;102474.16;;;1.23;100.00
54262;BME280;40174;52.364;6.452;2023-01-29T07:11:02;102482.81;;;1.24;100.00
54262;BME280;40174;52.364;6.452;2023-01-29T07:13:29;102484.53;;;1.25;100.00
54262;BME280;40174;52.364;6.452;2023-01-29T07:15:57;102493.25;;;1.24;100.00
54262;BME280;40174;52.364;6.452;2023-01-29T07:18:23;102492.38;;;1.23;100.00
54262;BME280;40174;52.364;6.452;2023-01-29T07:20:51;102492.38;;;1.23;100.00
54262;BME280;40174;52.364;6.452;2023-01-29T07:23:18;102487.19;;;1.23;100.00
54262;BME280;40174;52.364;6.452;2023-01-29T07:25:45;102493.25;;;1.24;100.00
54262;BME280;40174;52.364;6.452;2023-01-29T07:28:14;102484.59;;;1.22;100.00
54262;BME280;40174;52.364;6.452;2023-01-29T07:30:40;102473.31;;;1.21;100.00
54262;BME280;40174;52.364;6.452;2023-01-29T07:33:08;102469.78;;;1.24;100.00
54262;BME280;40174;52.364;6.452;2023-01-29T07:35:36;102466.28;;;1.25;100.00
54262;BME280;40174;52.364;6.452;2023-01-29T07:38:04;102465.44;;;1.23;100.00
54262;BME280;40174;52.364;6.452;2023-01-29T07:40:31;102461.13;;;1.22;100.00
54262;BME280;40174;52.364;6.452;2023-01-29T07:42:58;102467.22;;;1.22;100.00
54262;BME280;40174;52.364;6.452;2023-01-29T07:45:25;102469.88;;;1.16;100.00
54262;BME280;40174;52.364;6.452;2023-01-29T07:47:52;102467.22;;;1.21;100.00
54262;BME280;40174;52.364;6.452;2023-01-29T07:50:20;102462.00;;;1.21;100.00
54262;BME280;40174;52.364;6.452;2023-01-29T07:52:46;102458.59;;;1.19;100.00
54262;BME280;40174;52.364;6.452;2023-01-29T07:55:15;102463.81;;;1.19;100.00
54262;BME280;40174;52.364;6.452;2023-01-29T07:57:42;102458.63;;;1.14;100.00
54262;BME280;40174;52.364;6.452;2023-01-29T08:00:12;102447.34;;;1.15;100.00
54262;BME280;40174;52.364;6.452;2023-01-29T08:02:39;102449.94;;;1.15;100.00
54262;BME280;40174;52.364;6.452;2023-01-29T08:05:07;102443.81;;;1.19;100.00
54262;BME280;40174;52.364;6.452;2023-01-29T08:07:34;102450.78;;;1.19;100.00
54262;BME280;40174;52.364;6.452;2023-01-29T08:10:00;102447.28;;;1.18;100.00
54262;BME280;40174;52.364;6.452;2023-01-29T08:12:28;102438.63;;;1.16;100.00
54262;BME280;40174;52.364;6.452;2023-01-29T08:14:55;102436.00;;;1.19;100.00
54262;BME280;40174;52.364;6.452;2023-01-29T08:17:21;102431.63;;;1.21;100.00
54262;BME280;40174;52.364;6.452;2023-01-29T08:19:48;102422.97;;;1.19;100.00
54262;BME280;40174;52.364;6.452;2023-01-29T08:22:14;102422.97;;;1.19;100.00
54262;BME280;40174;52.364;6.452;2023-01-29T08:24:41;102416.84;;;1.22;100.00
54262;BME280;40174;52.364;6.452;2023-01-29T08:27:08;102417.66;;;1.25;100.00
54262;BME280;40174;52.364;6.452;2023-01-29T08:29:36;102428.94;;;1.26;100.00
54262;BME280;40174;52.364;6.452;2023-01-29T08:32:02;102428.94;;;1.26;100.00
54262;BME280;40174;52.364;6.452;2023-01-29T08:34:29;102422.91;;;1.22;100.00
54262;BME280;40174;52.364;6.452;2023-01-29T08:36:55;102422.00;;;1.25;100.00
54262;BME280;40174;52.364;6.452;2023-01-29T08:39:22;102424.59;;;1.28;100.00
54262;BME280;40174;52.364;6.452;2023-01-29T08:41:49;102426.31;;;1.28;100.00
54262;BME280;40174;52.364;6.452;2023-01-29T08:44:15;102433.25;;;1.29;100.00
54262;BME280;40174;52.364;6.452;2023-01-29T08:46:43;102425.41;;;1.30;100.00
54262;BME280;40174;52.364;6.452;2023-01-29T08:49:10;102415.84;;;1.31;100.00
54262;BME280;40174;52.364;6.452;2023-01-29T08:51:36;102411.44;;;1.34;100.00
54262;BME280;40174;52.364;6.452;2023-01-29T08:54:03;102421.00;;;1.35;100.00
54262;BME280;40174;52.364;6.452;2023-01-29T08:56:29;102421.81;;;1.37;100.00
54262;BME280;40174;52.364;6.452;2023-01-29T08:58:56;102410.50;;;1.40;100.00
54262;BME280;40174;52.364;6.452;2023-01-29T09:01:22;102403.53;;;1.40;100.00
54262;BME280;40174;52.364;6.452;2023-01-29T09:03:50;102406.16;;;1.39;100.00
54262;BME280;40174;52.364;6.452;2023-01-29T09:06:17;102414.78;;;1.41;100.00
54262;BME280;40174;52.364;6.452;2023-01-29T09:08:44;102414.78;;;1.44;100.00
54262;BME280;40174;52.364;6.452;2023-01-29T09:11:10;102413.94;;;1.42;100.00
54262;BME280;40174;52.364;6.452;2023-01-29T09:13:37;102415.63;;;1.44;100.00
54262;BME280;40174;52.364;6.452;2023-01-29T09:16:04;102412.19;;;1.42;100.00
54262;BME280;40174;52.364;6.452;2023-01-29T09:18:31;102403.47;;;1.43;100.00
54262;BME280;40174;52.364;6.452;2023-01-29T09:20:59;102406.88;;;1.47;100.00
54262;BME280;40174;52.364;6.452;2023-01-29T09:23:27;102412.94;;;1.49;100.00
54262;BME280;40174;52.364;6.452;2023-01-29T09:25:54;102415.59;;;1.46;100.00
54262;BME280;40174;52.364;6.452;2023-01-29T09:28:21;102415.53;;;1.49;100.00
54262;BME280;40174;52.364;6.452;2023-01-29T09:30:48;102423.28;;;1.54;100.00
54262;BME280;40174;52.364;6.452;2023-01-29T09:33:15;102423.28;;;1.54;100.00
54262;BME280;40174;52.364;6.452;2023-01-29T09:35:42;102431.91;;;1.57;100.00
54262;BME280;40174;52.364;6.452;2023-01-29T09:38:11;102424.03;;;1.59;100.00
54262;BME280;40174;52.364;6.452;2023-01-29T09:40:47;102432.69;;;1.61;100.00
54262;BME280;40174;52.364;6.452;2023-01-29T09:43:18;102422.31;;;1.59;100.00
54262;BME280;40174;52.364;6.452;2023-01-29T09:45:52;102414.47;;;1.61;100.00
54262;BME280;40174;52.364;6.452;2023-01-29T09:48:22;102422.25;;;1.64;100.00
54262;BME280;40174;52.364;6.452;2023-01-29T09:50:51;102420.47;;;1.66;100.00
54262;BME280;40174;52.364;6.452;2023-01-29T09:53:26;102413.47;;;1.68;100.00
54262;BME280;40174;52.364;6.452;2023-01-29T09:56:00;102413.44;;;1.70;100.00
54262;BME280;40174;52.364;6.452;2023-01-29T09:58:31;102409.97;;;1.71;100.00
54262;BME280;40174;52.364;6.452;2023-01-29T10:01:09;102405.59;;;1.73;100.00
54262;BME280;40174;52.364;6.452;2023-01-29T10:03:51;102404.69;;;1.72;100.00
54262;BME280;40174;52.364;6.452;2023-01-29T10:06:26;102402.91;;;1.76;100.00
54262;BME280;40174;52.364;6.452;2023-01-29T10:09:12;102401.22;;;1.73;100.00
54262;BME280;40174;52.364;6.452;2023-01-29T10:11:52;102391.56;;;1.78;100.00
54262;BME280;40174;52.364;6.452;2023-01-29T10:14:32;102382.84;;;1.79;100.00
54262;BME280;40174;52.364;6.452;2023-01-29T10:17:22;102376.75;;;1.80;100.00
54262;BME280;40174;52.364;6.452;2023-01-29T10:20:09;102375.00;;;1.81;100.00
54262;BME280;40174;52.364;6.452;2023-01-29T10:22:50;102374.13;;;1.82;100.00
54262;BME280;40174;52.364;6.452;2023-01-29T10:25:22;102370.63;;;1.81;100.00
54262;BME280;40174;52.364;6.452;2023-01-29T10:27:51;102367.16;;;1.82;100.00
54262;BME280;40174;52.364;6.452;2023-01-29T10:30:25;102368.00;;;1.83;100.00
54262;BME280;40174;52.364;6.452;2023-01-29T10:32:53;102361.09;;;1.82;100.00
54262;BME280;40174;52.364;6.452;2023-01-29T10:35:22;102361.09;;;1.80;100.00
54262;BME280;40174;52.364;6.452;2023-01-29T10:37:51;102362.78;;;1.83;100.00
54262;BME280;40174;52.364;6.452;2023-01-29T10:40:22;102349.72;;;1.84;100.00
54262;BME280;40174;52.364;6.452;2023-01-29T10:42:56;102354.94;;;1.84;100.00
54262;BME280;40174;52.364;6.452;2023-01-29T10:45:30;102348.81;;;1.85;100.00
54262;BME280;40174;52.364;6.452;2023-01-29T10:48:29;102354.84;;;1.89;100.00
54262;BME280;40174;52.364;6.452;2023-01-29T10:51:08;102339.19;;;1.91;100.00
54262;BME280;40174;52.364;6.452;2023-01-29T10:53:47;102342.59;;;1.93;100.00
54262;BME280;40174;52.364;6.452;2023-01-29T10:56:34;102338.25;;;1.93;100.00
54262;BME280;40174;52.364;6.452;2023-01-29T10:59:08;102334.63;;;2.00;100.00
54262;BME280;40174;52.364;6.452;2023-01-29T11:01:44;102338.06;;;2.02;100.00
54262;BME280;40174;52.364;6.452;2023-01-29T11:04:11;102324.13;;;2.03;100.00
54262;BME280;40174;52.364;6.452;2023-01-29T11:06:39;102320.56;;;2.07;100.00
54262;BME280;40174;52.364;6.452;2023-01-29T11:09:10;102315.28;;;2.11;100.00
54262;BME280;40174;52.364;6.452;2023-01-29T11:11:48;102309.94;;;2.17;100.00
54262;BME280;40174;52.364;6.452;2023-01-29T11:14:20;102312.63;;;2.14;100.00
54262;BME280;40174;52.364;6.452;2023-01-29T11:16:47;102307.19;;;2.24;100.00
54262;BME280;40174;52.364;6.452;2023-01-29T11:19:15;102300.34;;;2.19;100.00
54262;BME280;40174;52.364;6.452;2023-01-29T11:21:54;102295.13;;;2.19;100.00
54262;BME280;40174;52.364;6.452;2023-01-29T11:24:22;102290.72;;;2.21;100.00
54262;BME280;40174;52.364;6.452;2023-01-29T11:26:53;102284.56;;;2.23;100.00
54262;BME280;40174;52.364;6.452;2023-01-29T11:29:33;102285.41;;;2.25;100.00
54262;BME280;40174;52.364;6.452;2023-01-29T11:32:03;102290.53;;;2.28;100.00
54262;BME280;40174;52.364;6.452;2023-01-29T11:34:31;102286.31;;;2.24;100.00
54262;BME280;40174;52.364;6.452;2023-01-29T11:36:59;102279.34;;;2.23;100.00
54262;BME280;40174;52.364;6.452;2023-01-29T11:39:27;102272.28;;;2.28;100.00
54262;BME280;40174;52.364;6.452;2023-01-29T11:41:57;102277.47;;;2.30;100.00
54262;BME280;40174;52.364;6.452;2023-01-29T11:44:30;102276.50;;;2.36;100.00
54262;BME280;40174;52.364;6.452;2023-01-29T11:47:11;102271.22;;;2.37;100.00
54262;BME280;40174;52.364;6.452;2023-01-29T11:49:44;102274.72;;;2.36;100.00
54262;BME280;40174;52.364;6.452;2023-01-29T11:52:12;102260.63;;;2.43;100.00
54262;BME280;40174;52.364;6.452;2023-01-29T11:54:44;102248.56;;;2.39;100.00
54262;BME280;40174;52.364;6.452;2023-01-29T11:57:22;102248.50;;;2.42;100.00
54262;BME280;40174;52.364;6.452;2023-01-29T11:59:50;102234.66;;;2.39;100.00
54262;BME280;40174;52.364;6.452;2023-01-29T12:02:23;102239.75;;;2.43;100.00
54262;BME280;40174;52.364;6.452;2023-01-29T12:04:54;102237.06;;;2.46;100.00
54262;BME280;40174;52.364;6.452;2023-01-29T12:07:22;102227.41;;;2.52;100.00
54262;BME280;40174;52.364;6.452;2023-01-29T12:09:53;102226.56;;;2.49;100.00
54262;BME280;40174;52.364;6.452;2023-01-29T12:12:31;102228.28;;;2.50;100.00
54262;BME280;40174;52.364;6.452;2023-01-29T12:17:57;102211.66;;;2.55;100.00
54262;BME280;40174;52.364;6.452;2023-01-29T12:20:29;102211.66;;;2.55;100.00
54262;BME280;40174;52.364;6.452;2023-01-29T12:23:10;102205.44;;;2.60;100.00
54262;BME280;40174;52.364;6.452;2023-01-29T12:25:46;102206.41;;;2.56;100.00
54262;BME280;40174;52.364;6.452;2023-01-29T12:28:30;102196.84;;;2.55;100.00
54262;BME280;40174;52.364;6.452;2023-01-29T12:31:10;102185.41;;;2.61;100.00
54262;BME280;40174;52.364;6.452;2023-01-29T12:33:45;102184.66;;;2.56;100.00
54262;BME280;40174;52.364;6.452;2023-01-29T12:36:17;102183.66;;;2.60;100.00
54262;BME280;40174;52.364;6.452;2023-01-29T12:38:47;102172.34;;;2.61;100.00
54262;BME280;40174;52.364;6.452;2023-01-29T12:41:24;102185.41;;;2.61;100.00
54262;BME280;40174;52.364;6.452;2023-01-29T12:43:57;102161.06;;;2.60;100.00
54262;BME280;40174;52.364;6.452;2023-01-29T12:46:28;102164.53;;;2.59;100.00
54262;BME280;40174;52.364;6.452;2023-01-29T12:49:00;102166.31;;;2.59;100.00
54262;BME280;40174;52.364;6.452;2023-01-29T12:51:33;102162.72;;;2.63;100.00
54262;BME280;40174;52.364;6.452;2023-01-29T12:54:04;102154.09;;;2.59;100.00
54262;BME280;40174;52.364;6.452;2023-01-29T12:56:35;102144.47;;;2.61;100.00
54262;BME280;40174;52.364;6.452;2023-01-29T12:59:13;102142.66;;;2.65;100.00
54262;BME280;40174;52.364;6.452;2023-01-29T13:01:46;102130.44;;;2.67;100.00
54262;BME280;40174;52.364;6.452;2023-01-29T13:04:18;102134.72;;;2.68;100.00
54262;BME280;40174;52.364;6.452;2023-01-29T13:06:50;102122.50;;;2.70;100.00
54262;BME280;40174;52.364;6.452;2023-01-29T13:09:23;102127.81;;;2.67;100.00
54262;BME280;40174;52.364;6.452;2023-01-29T13:11:54;102111.28;;;2.66;100.00
54262;BME280;40174;52.364;6.452;2023-01-29T13:14:26;102112.22;;;2.64;100.00